AXB1168 VOBL-VOMM
Flight info
| Callsign | AXB1168 |
|---|---|
| Flight time | 0h 29m |
| Altitude | 19000 |
| Route | BIA W116 MMV |
| Aircraft | B738/M-SDE2E3FGHIRWXY/LB1 |
Departure
| Time | 2026-05-08 11:07 |
|---|---|
| Airport | Kempegowda International Airport Bengaluru (VOBL) |
Arrival
| Time | 2026-05-08 11:36 |
|---|---|
| Airport | Chennai International Airport (VOMM) |
| Time | Latitude | Longitude | Altitude | Speed | Heading |
|---|---|---|---|---|---|
| 2026-05-08 10:52 | 13.19930 | 77.72041 | 3010 ft | 0 kts | 264° |
| 2026-05-08 10:56 | 13.19930 | 77.72042 | 3010 ft | 2 kts | 264° |
| 2026-05-08 10:56 | 13.19933 | 77.72069 | 3010 ft | 4 kts | 269° |
| 2026-05-08 10:56 | 13.19931 | 77.72095 | 3010 ft | 4 kts | 292° |
| 2026-05-08 10:56 | 13.19918 | 77.72110 | 3017 ft | 2 kts | 360° |
| 2026-05-08 10:57 | 13.19913 | 77.72110 | 3017 ft | 0 kts | 0° |
| 2026-05-08 10:59 | 13.19928 | 77.72110 | 3015 ft | 5 kts | 0° |
| 2026-05-08 10:59 | 13.19979 | 77.72111 | 3013 ft | 10 kts | 0° |
| 2026-05-08 10:59 | 13.20060 | 77.72112 | 3010 ft | 14 kts | 0° |
| 2026-05-08 10:59 | 13.20168 | 77.72113 | 3013 ft | 17 kts | 0° |
| 2026-05-08 11:00 | 13.20299 | 77.72114 | 3010 ft | 20 kts | 0° |
| 2026-05-08 11:00 | 13.20442 | 77.72115 | 3011 ft | 20 kts | 1° |
| 2026-05-08 11:00 | 13.20519 | 77.72025 | 3011 ft | 20 kts | 274° |
| 2026-05-08 11:00 | 13.20520 | 77.71887 | 3011 ft | 19 kts | 270° |
| 2026-05-08 11:01 | 13.20521 | 77.71753 | 3011 ft | 18 kts | 270° |
| 2026-05-08 11:01 | 13.20522 | 77.71624 | 3011 ft | 18 kts | 270° |
| 2026-05-08 11:01 | 13.20523 | 77.71499 | 3010 ft | 17 kts | 270° |
| 2026-05-08 11:01 | 13.20525 | 77.71379 | 3010 ft | 17 kts | 270° |
| 2026-05-08 11:02 | 13.20527 | 77.71262 | 3010 ft | 17 kts | 264° |
| 2026-05-08 11:02 | 13.20528 | 77.70996 | 3010 ft | 21 kts | 270° |
| 2026-05-08 11:02 | 13.20529 | 77.70843 | 3010 ft | 23 kts | 270° |
| 2026-05-08 11:03 | 13.20531 | 77.70677 | 3010 ft | 24 kts | 270° |
| 2026-05-08 11:03 | 13.20533 | 77.70500 | 3010 ft | 25 kts | 270° |
| 2026-05-08 11:03 | 13.20533 | 77.70327 | 3011 ft | 23 kts | 270° |
| 2026-05-08 11:03 | 13.20535 | 77.70164 | 3011 ft | 22 kts | 271° |
| 2026-05-08 11:04 | 13.20537 | 77.70006 | 3011 ft | 22 kts | 271° |
| 2026-05-08 11:04 | 13.20538 | 77.69853 | 3010 ft | 21 kts | 270° |
| 2026-05-08 11:04 | 13.20540 | 77.69704 | 3011 ft | 21 kts | 270° |
| 2026-05-08 11:04 | 13.20540 | 77.69557 | 3010 ft | 21 kts | 270° |
| 2026-05-08 11:05 | 13.20541 | 77.69397 | 3010 ft | 24 kts | 270° |
| 2026-05-08 11:05 | 13.20543 | 77.69260 | 3010 ft | 11 kts | 271° |
| 2026-05-08 11:05 | 13.20590 | 77.69204 | 3010 ft | 11 kts | 350° |
| 2026-05-08 11:05 | 13.20666 | 77.69205 | 3010 ft | 11 kts | 1° |
| 2026-05-08 11:06 | 13.20714 | 77.69250 | 3010 ft | 11 kts | 85° |
| 2026-05-08 11:06 | 13.20714 | 77.69359 | 3010 ft | 36 kts | 90° |
| 2026-05-08 11:06 | 13.20711 | 77.69877 | 3010 ft | 107 kts | 91° |
| 2026-05-08 11:06 | 13.20702 | 77.70851 | 3013 ft | 164 kts | 87° |
| 2026-05-08 11:07 | 13.20697 | 77.72108 | 3551 ft | 177 kts | 89° |
| 2026-05-08 11:07 | 13.20814 | 77.73323 | 4547 ft | 172 kts | 75° |
| 2026-05-08 11:07 | 13.20952 | 77.74590 | 5105 ft | 194 kts | 96° |
| 2026-05-08 11:07 | 13.20654 | 77.76035 | 5444 ft | 219 kts | 101° |
| 2026-05-08 11:08 | 13.20421 | 77.77645 | 5936 ft | 223 kts | 91° |
| 2026-05-08 11:08 | 13.20270 | 77.79225 | 6579 ft | 230 kts | 99° |
| 2026-05-08 11:08 | 13.19908 | 77.80909 | 6866 ft | 249 kts | 102° |
| 2026-05-08 11:08 | 13.19503 | 77.82687 | 7174 ft | 268 kts | 102° |
| 2026-05-08 11:09 | 13.19082 | 77.84613 | 7656 ft | 281 kts | 101° |
| 2026-05-08 11:09 | 13.18679 | 77.86547 | 8528 ft | 282 kts | 101° |
| 2026-05-08 11:09 | 13.18284 | 77.88529 | 9434 ft | 285 kts | 99° |
| 2026-05-08 11:09 | 13.17896 | 77.90551 | 10232 ft | 292 kts | 99° |
| 2026-05-08 11:10 | 13.17500 | 77.92679 | 10537 ft | 317 kts | 99° |
| 2026-05-08 11:10 | 13.17087 | 77.94953 | 11060 ft | 329 kts | 99° |
| 2026-05-08 11:10 | 13.16667 | 77.97287 | 11760 ft | 335 kts | 99° |
| 2026-05-08 11:10 | 13.16389 | 77.98850 | 12252 ft | 338 kts | 99° |
| 2026-05-08 11:11 | 13.15965 | 78.01240 | 12964 ft | 343 kts | 99° |
| 2026-05-08 11:11 | 13.15391 | 78.04490 | 13887 ft | 350 kts | 100° |
| 2026-05-08 11:11 | 13.14957 | 78.06958 | 14494 ft | 355 kts | 100° |
| 2026-05-08 11:11 | 13.14516 | 78.09471 | 15099 ft | 360 kts | 100° |
| 2026-05-08 11:12 | 13.14220 | 78.11160 | 15493 ft | 364 kts | 100° |
| 2026-05-08 11:12 | 13.13768 | 78.13733 | 16075 ft | 369 kts | 100° |
| 2026-05-08 11:12 | 13.13310 | 78.16344 | 16662 ft | 374 kts | 101° |
| 2026-05-08 11:12 | 13.12846 | 78.18987 | 17252 ft | 379 kts | 101° |
| 2026-05-08 11:13 | 13.12379 | 78.21649 | 17984 ft | 378 kts | 101° |
| 2026-05-08 11:13 | 13.11913 | 78.24302 | 18558 ft | 378 kts | 101° |
| 2026-05-08 11:13 | 13.11449 | 78.26944 | 18841 ft | 375 kts | 101° |
| 2026-05-08 11:13 | 13.10986 | 78.29579 | 18885 ft | 378 kts | 101° |
| 2026-05-08 11:14 | 13.10521 | 78.32223 | 18889 ft | 376 kts | 101° |
| 2026-05-08 11:14 | 13.10057 | 78.34860 | 18893 ft | 374 kts | 101° |
| 2026-05-08 11:14 | 13.09595 | 78.37485 | 18894 ft | 373 kts | 101° |
| 2026-05-08 11:14 | 13.09132 | 78.40106 | 18888 ft | 372 kts | 101° |
| 2026-05-08 11:15 | 13.08671 | 78.42721 | 18886 ft | 372 kts | 101° |
| 2026-05-08 11:15 | 13.08210 | 78.45335 | 18885 ft | 372 kts | 101° |
| 2026-05-08 11:15 | 13.07747 | 78.47956 | 18885 ft | 373 kts | 101° |
| 2026-05-08 11:15 | 13.07290 | 78.50541 | 18878 ft | 374 kts | 101° |
| 2026-05-08 11:16 | 13.06826 | 78.53167 | 18874 ft | 374 kts | 101° |
| 2026-05-08 11:16 | 13.06354 | 78.55831 | 18872 ft | 375 kts | 101° |
| 2026-05-08 11:16 | 13.05894 | 78.58434 | 18866 ft | 376 kts | 101° |
| 2026-05-08 11:16 | 13.05425 | 78.61079 | 18857 ft | 377 kts | 101° |
| 2026-05-08 11:17 | 13.04957 | 78.63719 | 18856 ft | 377 kts | 101° |
| 2026-05-08 11:17 | 13.04487 | 78.66368 | 18851 ft | 377 kts | 101° |
| 2026-05-08 11:17 | 13.04019 | 78.69009 | 18842 ft | 377 kts | 101° |
| 2026-05-08 11:17 | 13.03549 | 78.71652 | 18843 ft | 376 kts | 101° |
| 2026-05-08 11:18 | 13.03082 | 78.74282 | 18835 ft | 371 kts | 101° |
| 2026-05-08 11:18 | 13.02627 | 78.76844 | 18820 ft | 359 kts | 101° |
| 2026-05-08 11:18 | 13.02185 | 78.79335 | 18817 ft | 352 kts | 101° |
| 2026-05-08 11:18 | 13.01745 | 78.81802 | 18825 ft | 352 kts | 101° |
| 2026-05-08 11:19 | 13.01303 | 78.84283 | 18782 ft | 354 kts | 101° |
| 2026-05-08 11:19 | 13.00859 | 78.86773 | 18496 ft | 355 kts | 101° |
| 2026-05-08 11:19 | 13.00416 | 78.89260 | 18209 ft | 355 kts | 101° |
| 2026-05-08 11:19 | 12.99973 | 78.91742 | 17832 ft | 353 kts | 101° |
| 2026-05-08 11:20 | 12.99532 | 78.94214 | 17451 ft | 351 kts | 101° |
| 2026-05-08 11:20 | 12.99093 | 78.96671 | 17077 ft | 349 kts | 100° |
| 2026-05-08 11:20 | 12.98657 | 78.99116 | 16700 ft | 347 kts | 100° |
| 2026-05-08 11:20 | 12.98228 | 79.01513 | 16350 ft | 345 kts | 100° |
| 2026-05-08 11:21 | 12.97796 | 79.03930 | 15988 ft | 343 kts | 100° |
| 2026-05-08 11:21 | 12.97367 | 79.06328 | 15636 ft | 341 kts | 99° |
| 2026-05-08 11:21 | 12.96941 | 79.08707 | 15280 ft | 340 kts | 99° |
| 2026-05-08 11:21 | 12.96615 | 79.11097 | 14977 ft | 336 kts | 94° |
| 2026-05-08 11:22 | 12.96441 | 79.13480 | 14649 ft | 333 kts | 92° |
| 2026-05-08 11:22 | 12.96315 | 79.15845 | 14305 ft | 331 kts | 91° |
| 2026-05-08 11:22 | 12.96198 | 79.18200 | 13965 ft | 330 kts | 91° |
| 2026-05-08 11:22 | 12.96077 | 79.20544 | 13605 ft | 329 kts | 91° |
| 2026-05-08 11:23 | 12.95948 | 79.22888 | 13226 ft | 328 kts | 91° |
| 2026-05-08 11:23 | 12.95815 | 79.25210 | 12855 ft | 326 kts | 91° |
| 2026-05-08 11:23 | 12.95681 | 79.27502 | 12505 ft | 324 kts | 91° |
| 2026-05-08 11:23 | 12.95542 | 79.29798 | 12150 ft | 322 kts | 91° |
| 2026-05-08 11:24 | 12.95402 | 79.32086 | 11805 ft | 320 kts | 91° |
| 2026-05-08 11:24 | 12.95262 | 79.34357 | 11460 ft | 318 kts | 91° |
| 2026-05-08 11:24 | 12.95123 | 79.36610 | 11122 ft | 316 kts | 91° |
| 2026-05-08 11:24 | 12.94984 | 79.38854 | 10785 ft | 314 kts | 91° |
| 2026-05-08 11:25 | 12.94845 | 79.41084 | 10447 ft | 312 kts | 91° |
| 2026-05-08 11:25 | 12.94707 | 79.43292 | 10119 ft | 310 kts | 91° |
| 2026-05-08 11:25 | 12.94570 | 79.45479 | 9970 ft | 301 kts | 91° |
| 2026-05-08 11:25 | 12.94436 | 79.47589 | 9832 ft | 293 kts | 91° |
| 2026-05-08 11:26 | 12.94307 | 79.49644 | 9740 ft | 283 kts | 91° |
| 2026-05-08 11:26 | 12.94180 | 79.51656 | 9293 ft | 288 kts | 91° |
| 2026-05-08 11:26 | 12.94053 | 79.53704 | 8949 ft | 289 kts | 91° |
| 2026-05-08 11:26 | 12.93925 | 79.55751 | 8648 ft | 288 kts | 91° |
| 2026-05-08 11:27 | 12.93796 | 79.57800 | 8328 ft | 287 kts | 91° |
| 2026-05-08 11:27 | 12.93670 | 79.59805 | 8030 ft | 285 kts | 91° |
| 2026-05-08 11:27 | 12.93543 | 79.61820 | 7734 ft | 282 kts | 91° |
| 2026-05-08 11:27 | 12.93415 | 79.63832 | 7443 ft | 280 kts | 91° |
| 2026-05-08 11:28 | 12.93289 | 79.65818 | 7155 ft | 279 kts | 91° |
| 2026-05-08 11:28 | 12.93164 | 79.67794 | 6859 ft | 277 kts | 91° |
| 2026-05-08 11:28 | 12.93040 | 79.69759 | 6580 ft | 276 kts | 91° |
| 2026-05-08 11:28 | 12.92915 | 79.71716 | 6298 ft | 274 kts | 92° |
| 2026-05-08 11:29 | 12.92791 | 79.73666 | 6005 ft | 273 kts | 92° |
| 2026-05-08 11:29 | 12.92668 | 79.75606 | 5700 ft | 272 kts | 92° |
| 2026-05-08 11:29 | 12.92545 | 79.77534 | 5414 ft | 270 kts | 92° |
| 2026-05-08 11:29 | 12.92422 | 79.79450 | 5141 ft | 268 kts | 92° |
| 2026-05-08 11:30 | 12.92301 | 79.81351 | 4873 ft | 267 kts | 92° |
| 2026-05-08 11:30 | 12.92179 | 79.83257 | 4637 ft | 270 kts | 92° |
| 2026-05-08 11:30 | 12.92057 | 79.85183 | 4339 ft | 277 kts | 92° |
| 2026-05-08 11:30 | 12.91930 | 79.87148 | 4153 ft | 265 kts | 92° |
| 2026-05-08 11:31 | 12.91813 | 79.88965 | 4057 ft | 252 kts | 93° |
| 2026-05-08 11:31 | 12.91701 | 79.90710 | 3990 ft | 241 kts | 92° |
| 2026-05-08 11:31 | 12.91592 | 79.92405 | 3838 ft | 238 kts | 92° |
| 2026-05-08 11:31 | 12.91482 | 79.94112 | 3598 ft | 239 kts | 92° |
| 2026-05-08 11:32 | 12.91417 | 79.95793 | 3389 ft | 234 kts | 84° |
| 2026-05-08 11:32 | 12.91777 | 79.97402 | 3181 ft | 231 kts | 72° |
| 2026-05-08 11:32 | 12.92319 | 79.98957 | 2898 ft | 232 kts | 70° |
| 2026-05-08 11:32 | 12.92896 | 80.00496 | 2674 ft | 227 kts | 69° |
| 2026-05-08 11:33 | 12.93446 | 80.01959 | 2598 ft | 215 kts | 69° |
| 2026-05-08 11:33 | 12.93958 | 80.03332 | 2404 ft | 198 kts | 69° |
| 2026-05-08 11:33 | 12.94433 | 80.04609 | 2172 ft | 184 kts | 69° |
| 2026-05-08 11:33 | 12.94875 | 80.05796 | 1948 ft | 173 kts | 69° |
| 2026-05-08 11:34 | 12.95294 | 80.06920 | 1759 ft | 166 kts | 69° |
| 2026-05-08 11:34 | 12.95696 | 80.08001 | 1524 ft | 158 kts | 69° |
| 2026-05-08 11:34 | 12.96075 | 80.09015 | 1320 ft | 147 kts | 70° |
| 2026-05-08 11:34 | 12.96435 | 80.09981 | 1128 ft | 146 kts | 71° |
| 2026-05-08 11:35 | 12.96792 | 80.10942 | 946 ft | 144 kts | 70° |
| 2026-05-08 11:35 | 12.97154 | 80.11893 | 731 ft | 146 kts | 71° |
| 2026-05-08 11:35 | 12.97510 | 80.12852 | 617 ft | 143 kts | 71° |
| 2026-05-08 11:35 | 12.97873 | 80.13823 | 394 ft | 148 kts | 72° |
| 2026-05-08 11:36 | 12.98234 | 80.14805 | 179 ft | 145 kts | 71° |
| 2026-05-08 11:36 | 12.98590 | 80.15756 | 53 ft | 138 kts | 71° |
| 2026-05-08 11:36 | 12.98897 | 80.16581 | 51 ft | 104 kts | 69° |
| 2026-05-08 11:36 | 12.99092 | 80.17101 | 49 ft | 23 kts | 68° |
| 2026-05-08 11:37 | 12.99083 | 80.17204 | 52 ft | 14 kts | 149° |
| 2026-05-08 11:37 | 12.98996 | 80.17239 | 51 ft | 13 kts | 162° |
| 2026-05-08 11:37 | 12.98929 | 80.17193 | 50 ft | 13 kts | 244° |
| 2026-05-08 11:37 | 12.98893 | 80.17097 | 53 ft | 17 kts | 249° |
| 2026-05-08 11:38 | 12.98840 | 80.16957 | 50 ft | 24 kts | 249° |
| 2026-05-08 11:38 | 12.98782 | 80.16804 | 51 ft | 19 kts | 249° |
| 2026-05-08 11:38 | 12.98711 | 80.16735 | 54 ft | 15 kts | 169° |
| 2026-05-08 11:38 | 12.98616 | 80.16765 | 53 ft | 14 kts | 184° |
| 2026-05-08 11:39 | 12.98563 | 80.16689 | 52 ft | 14 kts | 249° |
| 2026-05-08 11:39 | 12.98535 | 80.16625 | 51 ft | 3 kts | 223° |
| 2026-05-08 11:39 | 12.98509 | 80.16624 | 52 ft | 4 kts | 171° |
| 2026-05-08 11:39 | 12.98482 | 80.16635 | 54 ft | 4 kts | 157° |
| 2026-05-08 11:40 | 12.98480 | 80.16636 | 54 ft | 1 kts | 158° |
| 2026-05-08 11:40 | 12.98478 | 80.16636 | 54 ft | 0 kts | 158° |